Nearby METAR Reports

 

EGVN - Brize Norton Raf, United Kingdom
Distance from station: SSE 20mi, 32km
Updated: 10/12/2018 13:50
Mostly cloudy
Mostly cloudy
 Wind from W
Wind: W 7 mph , 11 km/h
Temperature: 9°C
Wind Chill: 7°C
Dew Point: 5°C
Humidity: 76%
Barometer: 1027 hPa
Clouds: Mostly cloudy
Visibility: 6 miles , 10 km
Cloud details: Few Clouds 549 m
Mostly cloudy 3048 m
2018/12/10 13:50 EGVN 101350Z 28006KT 9999 FEW018 BKN100 09/05 Q1027 BLU NOSIG
EGTK - Oxford, United Kingdom
Distance from station: SE 22mi, 35km
Updated: 10/12/2018 14:20
Clear
Clear
 Wind from WNW
Wind: WNW 7 mph , 11 km/h
Temperature: 8°C
Wind Chill: 6°C
Dew Point: 5°C
Humidity: 82%
Barometer: 1027 hPa
Summary: Clear
Visibility: greater than 7 miles , 10 km
2018/12/10 14:20 EGTK 101420Z 29006KT CAVOK 08/05 Q1027
 
EGBJ - Staverton (priva, United Kingdom
Distance from station: WSW 23mi, 36km
Updated: 10/12/2018 14:20
Few Clouds
Few Clouds
 Wind from W
Wind: W 7 mph , 11 km/h
Temperature: 9°C
Wind Chill: 7°C
Dew Point: 6°C
Humidity: 82%
Barometer: 1028 hPa
Clouds: Few Clouds
Visibility: 6 miles , 10 km
Cloud details: Few Clouds 853 m
2018/12/10 14:20 EGBJ 101420Z 27006KT 9999 FEW028 09/06 Q1028
EGVA - Fairford Raf, United Kingdom
Distance from station: S 27mi, 43km
Updated: 10/12/2018 13:56
Clear
Clear
 Wind from W
Wind: W 8 mph , 13 km/h
Clouds: Clear
Visibility: 6 miles , 10 km
2018/12/10 13:56 EGVA 101356Z AUTO 28007KT 9999 CLR M A3035 RMK AO2 SLPNO ALSTG ESTMD $
 
EGBB - Birmingham Airpo, United Kingdom
Distance from station: N 29mi, 46km
Updated: 10/12/2018 14:20
Clear
Clear
 Wind from WNW
Wind: WNW 7 mph , 11 km/h
Temperature: 8°C
Wind Chill: 6°C
Dew Point: 4°C
Humidity: 76%
Barometer: 1027 hPa
Summary: Clear
Visibility: greater than 7 miles , 10 km
2018/12/10 14:20 EGBB 101420Z 30006KT CAVOK 08/04 Q1027
EGUB - Benson Raf, United Kingdom
Distance from station: SE 40mi, 65km
Updated: 10/12/2018 13:50
Mostly cloudy
Mostly cloudy
 Wind from WNW
Wind: WNW 7 mph , 11 km/h
Temperature: 9°C
Wind Chill: 7°C
Dew Point: 5°C
Humidity: 76%
Barometer: 1027 hPa
Clouds: Mostly cloudy
Visibility: 6 miles , 10 km
Cloud details: Few Clouds 518 m
Mostly cloudy 3353 m
2018/12/10 13:50 EGUB 101350Z 29006KT 9999 FEW017 BKN110 09/05 Q1027 BLU NOSIG
 
EGTC - Cranfield, United Kingdom
Distance from station: E 46mi, 74km
Updated: 10/12/2018 14:20
Partly cloudy
Partly cloudy
 Wind from WNW
Wind: WNW 7 mph , 11 km/h
Temperature: 9°C
Wind Chill: 7°C
Dew Point: 6°C
Humidity: 82%
Barometer: 1026 hPa
Clouds: Partly cloudy
Visibility: 6 miles , 10 km
Cloud details: Partly cloudy 549 m
2018/12/10 14:20 EGTC 101420Z 29006KT 240V320 9999 SCT018 09/06 Q1026
EGWC - Cosford Raf, United Kingdom
Distance from station: NNW 46mi, 75km
Updated: 10/12/2018 13:50
Mostly cloudy
Mostly cloudy
 Wind from SSE
Wind: SSE 5 mph , 7 km/h
Temperature: 9°C
Wind Chill: 8°C
Dew Point: 4°C
Humidity: 71%
Barometer: 1027 hPa
Clouds: Mostly cloudy
Visibility: 6 miles , 10 km
Cloud details: Few Clouds 1219 m
Mostly cloudy 3048 m
2018/12/10 13:50 EGWC 101350Z 16004KT 9999 FEW040 BKN100 09/04 Q1027 BLU